Time;durP1;ratioP1;P1;durP2;ratioP2;P2;SDS_P1;SDS_P2;PMS_P1;PMS_P2;Temp;Humidity;BMP_temperature;BMP_pressure;BME280_temperature;BME280_humidity;BME280_pressure;Samples;Min_cycle;Max_cycle;Signal;HPM_P1;HPM_P2
2024/01/02 00:00:57;;;;;;;12.30;3.08;;;;;;;5.78;100.00;100034.94;5033604;28;20022;-81
2024/01/02 00:03:24;;;;;;;12.02;3.13;;;;;;;5.78;100.00;100024.69;5033354;28;20032;-81
2024/01/02 00:05:52;;;;;;;10.20;2.83;;;;;;;5.73;100.00;100015.56;5032184;28;20112;-82
2024/01/02 00:08:17;;;;;;;13.85;3.08;;;;;;;5.60;100.00;99988.13;5033444;28;20057;-81
2024/01/02 00:11:03;;;;;;;13.55;2.80;;;;;;;5.80;100.00;100010.06;5033251;28;20053;-81
2024/01/02 00:13:47;;;;;;;11.38;2.65;;;;;;;5.37;100.00;99930.53;5032254;28;20025;-81
2024/01/02 00:40:06;;;;;;;10.85;2.92;;;;;;;5.50;100.00;99825.66;5033071;28;20171;-80
2024/01/02 00:47:42;;;;;;;9.43;2.50;;;;;;;5.92;100.00;99848.81;5604358;23;20056;-80
2024/01/02 00:50:09;;;;;;;8.63;2.40;;;;;;;5.60;100.00;99783.25;5072741;28;20413;-80
2024/01/02 00:52:34;;;;;;;6.18;1.60;;;;;;;5.92;100.00;99828.31;5072250;28;20075;-81
2024/01/02 00:55:00;;;;;;;6.90;2.10;;;;;;;5.94;100.00;99828.22;5072684;28;20060;-81
2024/01/02 00:57:28;;;;;;;8.93;2.47;;;;;;;5.93;100.00;99808.63;5072731;28;20297;-80
2024/01/02 00:59:53;;;;;;;6.50;2.00;;;;;;;5.91;100.00;99795.94;5072769;28;20024;-81
2024/01/02 01:02:19;;;;;;;5.85;1.60;;;;;;;5.42;100.00;99706.63;5072503;28;20039;-80
2024/01/02 01:04:45;;;;;;;7.22;1.50;;;;;;;5.96;100.00;99793.06;5072604;28;20039;-80
2024/01/02 01:07:11;;;;;;;4.63;1.42;;;;;;;5.98;100.00;99779.25;5072663;28;20024;-81
2024/01/02 01:09:37;;;;;;;6.57;2.05;;;;;;;5.95;100.00;99765.81;5161031;23;20024;-81
2024/01/02 01:12:23;;;;;;;4.65;1.30;;;;;;;5.13;100.00;99630.75;5052008;28;20366;-81
2024/01/02 01:18:21;;;;;;;5.93;1.13;;;;;;;4.81;100.00;99545.66;5051871;28;20060;-80
2024/01/02 01:20:47;;;;;;;4.13;1.15;;;;;;;5.46;100.00;99641.50;5052639;28;20021;-81
2024/01/02 01:23:21;;;;;;;5.10;1.20;;;;;;;5.64;100.00;99660.06;5052359;28;20025;-80
2024/01/02 01:25:47;;;;;;;7.13;1.35;;;;;;;6.02;100.00;99711.53;5052340;28;20017;-80
2024/01/02 01:28:12;;;;;;;4.93;1.10;;;;;;;5.72;100.00;99651.91;5050290;28;20460;-80
2024/01/02 01:30:38;;;;;;;4.65;1.50;;;;;;;5.93;100.00;99667.72;5052347;28;20029;-80
2024/01/02 01:33:04;;;;;;;6.30;1.73;;;;;;;6.03;100.00;99679.84;5052440;28;20029;-80
2024/01/02 01:35:29;;;;;;;4.05;1.23;;;;;;;6.03;100.00;99658.53;5052502;28;20043;-80
2024/01/02 01:37:54;;;;;;;6.90;1.58;;;;;;;6.04;100.00;99657.63;5052232;28;20473;-80
2024/01/02 01:40:20;;;;;;;6.47;1.13;;;;;;;6.04;100.00;99653.31;5052220;28;20465;-80
2024/01/02 01:42:45;;;;;;;4.72;0.90;;;;;;;5.96;100.00;99635.03;5052229;28;20033;-80
2024/01/02 01:45:10;;;;;;;4.47;1.00;;;;;;;5.70;100.00;99569.19;5052236;28;20029;-81
2024/01/02 01:47:36;;;;;;;5.57;1.40;;;;;;;5.78;100.00;99590.03;5052422;28;20036;-81
2024/01/02 01:50:02;;;;;;;3.80;1.38;;;;;;;6.07;100.00;99613.03;5052225;28;20044;-80
2024/01/02 01:52:32;;;;;;;4.50;0.85;;;;;;;6.06;100.00;99601.94;5051976;28;20037;-78
2024/01/02 01:54:58;;;;;;;2.97;1.10;;;;;;;6.04;100.00;99591.81;5052049;28;20036;-80
2024/01/02 01:57:23;;;;;;;2.92;0.93;;;;;;;5.96;100.00;99565.03;5051910;28;20116;-80
2024/01/02 01:59:49;;;;;;;3.00;0.88;;;;;;;5.85;100.00;99544.38;5051998;28;20100;-80
2024/01/02 02:02:14;;;;;;;3.38;1.02;;;;;;;6.12;100.00;99582.81;5051923;28;20029;-80
2024/01/02 02:04:45;;;;;;;2.65;0.93;;;;;;;6.05;100.00;99556.75;5055072;28;20025;-80
2024/01/02 02:07:11;;;;;;;2.88;0.80;;;;;;;6.14;100.00;99560.47;5055808;28;20083;-80
2024/01/02 02:09:36;;;;;;;4.35;0.75;;;;;;;5.87;100.00;99510.03;5055645;28;20025;-79
2024/01/02 02:12:02;;;;;;;3.70;0.82;;;;;;;6.13;100.00;99551.13;5055680;28;20431;-79
2024/01/02 02:14:27;;;;;;;1.88;0.60;;;;;;;6.04;100.00;99527.75;5055562;28;20727;-80
2024/01/02 02:16:53;;;;;;;1.27;0.60;;;;;;;6.14;100.00;99533.09;5055653;28;20108;-79
2024/01/02 02:19:18;;;;;;;2.25;0.70;;;;;;;6.00;100.00;99499.88;5055868;28;20079;-80
2024/01/02 02:21:47;;;;;;;2.85;0.77;;;;;;;5.72;100.00;99444.44;5055704;28;20029;-79
2024/01/02 02:24:12;;;;;;;3.05;1.00;;;;;;;6.18;100.00;99500.38;5055435;28;20035;-79
2024/01/02 02:26:38;;;;;;;2.00;0.70;;;;;;;6.19;100.00;99502.00;5055328;28;20529;-79
2024/01/02 02:29:03;;;;;;;1.95;0.88;;;;;;;6.02;100.00;99468.09;5055427;28;20111;-80
2024/01/02 02:31:28;;;;;;;2.53;0.70;;;;;;;6.18;100.00;99479.88;5020803;28;20047;-80
2024/01/02 02:33:54;;;;;;;2.33;0.65;;;;;;;6.20;100.00;99478.88;5055651;28;20021;-81
2024/01/02 02:36:19;;;;;;;0.98;0.70;;;;;;;6.19;100.00;99464.38;5055722;28;20063;-80
2024/01/02 02:38:44;;;;;;;2.50;0.68;;;;;;;6.19;100.00;99454.13;5055391;28;20104;-80
2024/01/02 02:41:10;;;;;;;2.28;0.70;;;;;;;6.20;100.00;99430.16;5055159;28;20075;-80
2024/01/02 02:43:35;;;;;;;2.38;0.60;;;;;;;5.96;100.00;99389.03;5055177;28;20025;-80
2024/01/02 02:46:01;;;;;;;3.55;0.70;;;;;;;6.08;100.00;99401.94;5055110;28;20025;-80
2024/01/02 02:48:26;;;;;;;3.80;1.02;;;;;;;5.78;100.00;99344.13;5055015;28;20108;-80
2024/01/02 02:50:51;;;;;;;1.33;0.50;;;;;;;6.11;100.00;99381.25;5055232;28;20032;-80
2024/01/02 02:53:17;;;;;;;1.02;0.60;;;;;;;6.23;100.00;99386.38;5053696;28;20025;-79
2024/01/02 02:55:42;;;;;;;2.22;0.60;;;;;;;6.30;100.00;99399.59;5054795;28;20036;-80
2024/01/02 02:58:07;;;;;;;1.77;0.70;;;;;;;6.29;100.00;99375.72;5054904;28;20103;-80
2024/01/02 03:00:34;;;;;;;1.60;0.60;;;;;;;6.33;100.00;99368.63;5054795;28;20025;-80
2024/01/02 03:02:59;;;;;;;2.55;0.80;;;;;;;6.36;100.00;99355.59;5054899;28;20107;-79
2024/01/02 03:05:25;;;;;;;1.88;0.77;;;;;;;6.36;100.00;99341.94;5054881;28;20111;-79
2024/01/02 03:07:50;;;;;;;1.00;0.52;;;;;;;6.24;100.00;99326.50;5054907;28;20457;-79
2024/01/02 03:10:17;;;;;;;1.58;0.60;;;;;;;6.38;100.00;99329.84;5054280;28;20118;-79
2024/01/02 03:12:44;;;;;;;1.02;0.50;;;;;;;6.32;100.00;99308.84;5054689;28;20021;-80
2024/01/02 03:15:09;;;;;;;0.70;0.50;;;;;;;6.22;100.00;99284.78;5054354;28;20029;-80
2024/01/02 03:17:34;;;;;;;1.35;0.70;;;;;;;6.42;100.00;99309.03;5054553;28;20031;-79
2024/01/02 03:20:00;;;;;;;1.08;0.80;;;;;;;6.44;100.00;99298.66;5054635;28;20033;-80
2024/01/02 03:22:25;;;;;;;0.50;0.50;;;;;;;6.39;100.00;99273.34;5054589;28;20075;-79
2024/01/02 03:24:51;;;;;;;1.17;0.68;;;;;;;6.45;100.00;99278.03;5054518;28;20457;-80
2024/01/02 03:27:16;;;;;;;1.80;0.60;;;;;;;6.46;100.00;99274.53;5054508;28;20029;-80
2024/01/02 03:29:42;;;;;;;1.75;0.50;;;;;;;6.35;100.00;99237.75;5054421;28;20448;-80
2024/01/02 03:32:08;;;;;;;2.00;0.50;;;;;;;6.41;100.00;99245.84;5052855;28;20036;-80
2024/01/02 03:34:37;;;;;;;0.77;0.50;;;;;;;6.50;100.00;99244.38;5054290;28;20518;-81
2024/01/02 03:37:03;;;;;;;1.27;0.60;;;;;;;6.45;100.00;99219.03;5054158;28;20490;-80
2024/01/02 03:39:29;;;;;;;0.60;0.40;;;;;;;6.29;100.00;99190.28;5054087;28;20035;-80
2024/01/02 03:41:54;;;;;;;0.50;0.50;;;;;;;6.39;100.00;99211.81;5054212;28;20385;-80
2024/01/02 03:44:19;;;;;;;2.17;0.70;;;;;;;6.28;100.00;99194.59;5054039;28;20578;-80
2024/01/02 03:46:45;;;;;;;0.80;0.50;;;;;;;6.58;100.00;99227.50;5054041;28;20449;-80
2024/01/02 03:49:10;;;;;;;0.60;0.50;;;;;;;6.46;100.00;99202.72;5053985;28;20079;-80
2024/01/02 03:51:36;;;;;;;1.08;0.60;;;;;;;6.52;100.00;99202.31;5053923;28;20060;-80
2024/01/02 03:54:01;;;;;;;0.95;0.60;;;;;;;6.68;100.00;99206.31;5053718;28;20033;-80
2024/01/02 03:56:26;;;;;;;0.73;0.60;;;;;;;6.70;100.00;99207.03;5053606;28;20112;-80
2024/01/02 03:58:52;;;;;;;0.68;0.57;;;;;;;6.56;100.00;99175.50;5053846;28;20365;-81
2024/01/02 04:01:17;;;;;;;1.40;0.60;;;;;;;6.76;100.00;99207.38;5053726;28;20029;-81
2024/01/02 04:03:43;;;;;;;0.60;0.60;;;;;;;6.79;100.00;99204.63;5053715;28;20048;-81
2024/01/02 04:06:08;;;;;;;0.88;0.50;;;;;;;6.81;100.00;99197.63;5053569;28;20383;-81
2024/01/02 04:08:36;;;;;;;1.08;0.60;;;;;;;6.58;100.00;99150.53;5053628;28;20095;-80
2024/01/02 04:11:01;;;;;;;1.50;0.60;;;;;;;6.41;100.00;99107.41;5053363;28;20080;-80
2024/01/02 04:13:27;;;;;;;0.52;0.52;;;;;;;6.67;100.00;99138.78;5077568;22;20080;-81
2024/01/02 04:15:52;;;;;;;1.05;0.80;;;;;;;6.93;100.00;99172.78;5073403;28;20029;-80
2024/01/02 04:18:17;;;;;;;2.10;1.02;;;;;;;6.97;100.00;99160.53;5073143;28;20071;-81
2024/01/02 04:20:43;;;;;;;1.60;1.10;;;;;;;7.00;100.00;99168.03;5073181;28;20063;-80
2024/01/02 04:23:08;;;;;;;2.65;1.10;;;;;;;6.82;100.00;99131.72;5073265;28;20021;-81
2024/01/02 04:25:33;;;;;;;2.22;1.25;;;;;;;7.02;100.00;99154.16;5072711;28;20388;-81
2024/01/02 04:27:59;;;;;;;1.55;1.45;;;;;;;6.92;100.00;99122.41;5054988;28;20040;-81
2024/01/02 04:30:24;;;;;;;2.60;1.73;;;;;;;7.15;100.00;99160.00;5071924;28;20027;-81
2024/01/02 04:32:50;;;;;;;2.72;1.67;;;;;;;6.04;100.00;98979.38;5093699;23;20048;-81
2024/01/02 04:35:18;;;;;;;2.42;1.80;;;;;;;6.00;100.00;98962.59;5031746;28;20116;-81
2024/01/02 04:37:44;;;;;;;1.83;1.60;;;;;;;7.26;100.00;99160.94;5033255;28;20036;-81
2024/01/02 04:40:33;;;;;;;1.60;1.50;;;;;;;6.99;100.00;99113.31;5015418;28;20381;-80
2024/01/02 04:42:58;;;;;;;1.50;1.40;;;;;;;7.36;100.00;99149.03;4972270;28;20514;-80
2024/01/02 04:45:41;;;;;;;1.15;1.05;;;;;;;6.22;100.00;98966.94;4971936;28;20035;-81
2024/01/02 04:48:25;;;;;;;1.60;1.10;;;;;;;7.02;100.00;99087.44;4972040;28;20529;-82
2024/01/02 04:51:08;;;;;;;1.65;1.10;;;;;;;6.30;100.00;98961.25;4971935;28;20031;-81
2024/01/02 04:54:01;;;;;;;0.98;0.90;;;;;;;7.54;100.00;99141.66;4972299;28;20587;-81
2024/01/02 05:03:16;;;;;;;1.52;1.02;;;;;;;7.31;100.00;99079.25;4971232;28;20583;-81
2024/01/02 05:05:48;;;;;;;1.38;0.95;;;;;;;7.76;100.00;99145.00;4971899;28;20034;-81
2024/01/02 05:08:19;;;;;;;1.08;0.98;;;;;;;7.31;100.00;99061.28;4955651;28;20050;-82
2024/01/02 05:10:47;;;;;;;;;;;;;;;7.83;100.00;99145.34;5025737;23;20049;-81
2024/01/02 05:13:18;;;;;;;1.60;0.85;;;;;;;7.43;100.00;99058.56;5030694;28;20364;-81
2024/01/02 05:15:56;;;;;;;1.13;1.00;;;;;;;6.87;100.00;98961.09;5032410;28;20096;-81
2024/01/02 05:18:28;;;;;;;1.27;0.98;;;;;;;6.87;100.00;98971.34;5032654;28;20025;-81
2024/01/02 05:21:03;;;;;;;1.77;1.00;;;;;;;7.59;100.00;99065.88;5032598;28;20413;-82
2024/01/02 05:23:28;;;;;;;1.60;0.98;;;;;;;7.88;100.00;99107.28;5055579;23;20093;-81
2024/01/02 05:25:54;;;;;;;1.45;1.17;;;;;;;8.19;100.00;99145.97;5052212;28;20025;-83
2024/01/02 05:28:20;;;;;;;1.70;1.17;;;;;;;8.23;100.00;99143.00;5034468;28;20032;-82
2024/01/02 05:30:45;;;;;;;1.17;1.05;;;;;;;8.27;100.00;99139.28;5052313;28;20021;-81
2024/01/02 05:33:10;;;;;;;1.27;0.90;;;;;;;8.28;100.00;99129.78;5052386;28;20067;-81
2024/01/02 05:35:35;;;;;;;2.15;1.00;;;;;;;8.29;100.00;99124.53;5052199;28;20087;-81
2024/01/02 05:38:02;;;;;;;1.77;0.90;;;;;;;8.38;100.00;99137.63;5054084;28;20029;-80
2024/01/02 05:40:27;;;;;;;1.25;0.80;;;;;;;8.37;100.00;99118.81;5056344;28;20480;-81
2024/01/02 05:42:52;;;;;;;1.30;1.00;;;;;;;8.47;100.00;99132.53;5056091;28;20029;-80
2024/01/02 05:45:18;;;;;;;1.50;1.10;;;;;;;8.37;100.00;99102.56;5056141;28;20526;-80
2024/01/02 05:47:44;;;;;;;2.35;1.20;;;;;;;8.41;100.00;99112.44;5056122;28;20438;-83
2024/01/02 05:50:10;;;;;;;2.00;1.13;;;;;;;8.37;100.00;99082.78;5038438;28;20021;-82
2024/01/02 05:52:35;;;;;;;2.17;1.38;;;;;;;8.73;100.00;99138.13;5055978;28;20108;-81
2024/01/02 05:55:00;;;;;;;2.25;1.33;;;;;;;8.74;100.00;99144.88;5055850;28;20163;-82
2024/01/02 05:57:26;;;;;;;2.40;1.50;;;;;;;8.82;100.00;99141.69;5055844;28;20369;-81
2024/01/02 05:59:51;;;;;;;2.00;1.50;;;;;;;8.85;100.00;99144.84;5056317;28;20021;-81
2024/01/02 06:02:16;;;;;;;3.30;1.63;;;;;;;8.89;100.00;99150.53;5056010;28;20520;-82
2024/01/02 06:04:42;;;;;;;2.78;1.67;;;;;;;8.85;100.00;99150.00;5056075;28;20029;-82
2024/01/02 06:07:07;;;;;;;2.42;1.50;;;;;;;8.95;100.00;99160.34;5055988;28;20040;-81
2024/01/02 06:09:32;;;;;;;2.70;1.73;;;;;;;8.98;100.00;99175.53;5055796;28;20033;-81
2024/01/02 06:11:58;;;;;;;3.95;2.20;;;;;;;8.94;100.00;99157.88;5055404;28;20021;-81
2024/01/02 06:14:23;;;;;;;4.10;2.13;;;;;;;8.99;100.00;99166.88;5055839;28;20040;-84
2024/01/02 06:16:57;;;;;;;3.85;2.05;;;;;;;8.82;100.00;99139.94;5037236;28;20120;-81
2024/01/02 06:19:22;;;;;;;4.82;1.90;;;;;;;9.12;100.00;99192.41;5055650;28;20511;-80
2024/01/02 06:21:48;;;;;;;5.95;2.47;;;;;;;8.77;100.00;99136.13;5055448;28;20069;-80
2024/01/02 06:24:35;;;;;;;5.43;3.00;;;;;;;9.15;100.00;99189.59;5120604;23;20481;-81
2024/01/02 06:27:15;;;;;;;5.15;2.97;;;;;;;8.30;100.00;99050.75;5075238;28;20024;-82
2024/01/02 06:29:47;;;;;;;6.30;3.45;;;;;;;8.64;100.00;99110.56;5075445;28;20016;-81
2024/01/02 06:32:21;;;;;;;7.70;3.97;;;;;;;8.78;100.00;99142.91;5075190;28;20064;-81
2024/01/02 06:34:56;;;;;;;8.15;4.40;;;;;;;8.22;100.00;99056.53;5075020;28;20016;-80
2024/01/02 06:37:22;;;;;;;9.00;5.50;;;;;;;9.24;100.00;99201.69;5075284;28;20032;-80
2024/01/02 06:39:47;;;;;;;10.77;6.75;;;;;;;9.29;100.00;99196.16;5056469;28;20415;-81
2024/01/02 06:42:22;;;;;;;11.48;6.43;;;;;;;8.61;100.00;99095.38;5075026;28;20029;-80
2024/01/02 06:44:54;;;;;;;13.40;7.22;;;;;;;8.58;100.00;99086.16;5074813;28;20479;-81
2024/01/02 06:47:19;;;;;;;;;;;;;;;9.36;100.00;99205.00;5075302;28;20048;-80
2024/01/02 06:49:45;;;;;;;12.85;7.82;;;;;;;9.30;100.00;99200.38;5074321;28;20005;-80
2024/01/02 06:52:10;;;;;;;13.38;7.97;;;;;;;9.19;100.00;99180.66;5074949;28;20078;-81
2024/01/02 06:54:35;;;;;;;14.15;8.32;;;;;;;9.28;100.00;99195.34;5075104;28;20066;-79
2024/01/02 06:57:01;;;;;;;13.75;8.80;;;;;;;9.40;100.00;99208.94;5074945;28;20029;-79
2024/01/02 06:59:26;;;;;;;16.27;9.07;;;;;;;9.31;100.00;99207.97;5074830;28;20391;-80
2024/01/02 07:01:51;;;;;;;14.65;9.27;;;;;;;9.42;100.00;99225.09;5074989;28;20104;-79
2024/01/02 07:04:17;;;;;;;15.48;9.02;;;;;;;9.25;100.00;99193.03;5074580;28;20047;-80
2024/01/02 07:06:42;;;;;;;16.80;9.50;;;;;;;9.32;100.00;99204.44;5075021;28;20054;-80
2024/01/02 07:09:08;;;;;;;15.77;10.23;;;;;;;9.37;100.00;99211.78;5074763;28;20103;-79
2024/01/02 07:11:34;;;;;;;17.90;10.80;;;;;;;9.53;100.00;99244.81;5074733;28;20472;-80
2024/01/02 07:14:01;;;;;;;17.67;11.07;;;;;;;9.56;100.00;99239.41;5074155;28;20035;-80
2024/01/02 07:16:27;;;;;;;19.95;11.60;;;;;;;9.56;100.00;99242.81;5074249;28;20533;-80
2024/01/02 07:18:52;;;;;;;16.38;10.82;;;;;;;9.58;100.00;99246.06;5074630;28;20028;-79
2024/01/02 07:21:17;;;;;;;22.73;11.57;;;;;;;9.58;100.00;99240.09;5074187;28;20088;-80
2024/01/02 07:23:43;;;;;;;19.92;11.70;;;;;;;9.58;100.00;99235.75;5055718;28;20064;-79
2024/01/02 07:26:08;;;;;;;20.23;12.48;;;;;;;9.53;100.00;99232.72;5074259;28;20035;-80
2024/01/02 07:28:35;;;;;;;22.60;12.25;;;;;;;9.60;100.00;99256.25;5074151;28;20027;-80
2024/01/02 07:31:01;;;;;;;22.10;12.40;;;;;;;9.62;100.00;99265.47;5074439;28;20070;-80
2024/01/02 07:33:26;;;;;;;20.77;12.27;;;;;;;9.63;100.00;99261.94;5083901;28;20103;-78
2024/01/02 07:35:51;;;;;;;22.08;12.95;;;;;;;9.66;100.00;99266.84;5094884;28;20124;-81
2024/01/02 07:38:17;;;;;;;22.00;12.95;;;;;;;9.67;100.00;99271.06;5094469;28;20020;-81
2024/01/02 07:40:42;;;;;;;22.85;13.02;;;;;;;9.69;100.00;99276.09;5094311;28;20028;-79
2024/01/02 07:43:07;;;;;;;23.40;12.75;;;;;;;9.69;100.00;99294.13;5094188;28;20020;-80
2024/01/02 07:45:48;;;;;;;23.63;12.32;;;;;;;9.21;100.00;99222.53;5547195;22;20107;-80
2024/01/02 07:48:14;;;;;;;23.93;14.47;;;;;;;8.56;100.00;99113.78;5053969;28;20048;-76
2024/01/02 07:50:43;;;;;;;21.63;13.18;;;;;;;8.62;100.00;99125.31;5053601;28;20059;-78
2024/01/02 07:53:25;;;;;;;31.13;13.18;;;;;;;9.44;100.00;99264.44;5053872;28;20028;-76
2024/01/02 07:55:50;;;;;;;22.67;12.48;;;;;;;8.79;100.00;99158.22;5052836;28;20110;-78
2024/01/02 07:59:19;;;;;;;23.40;13.00;;;;;;;9.72;100.00;99314.47;5053608;28;20025;-79
2024/01/02 08:01:45;;;;;;;21.23;13.43;;;;;;;9.19;100.00;99221.88;4983597;28;20419;-79
2024/01/02 08:04:10;;;;;;;22.95;12.98;;;;;;;9.75;100.00;99312.50;4991926;28;20026;-80
2024/01/02 08:06:35;;;;;;;18.35;11.43;;;;;;;9.20;100.00;99221.72;4991943;28;20089;-79
2024/01/02 08:09:01;;;;;;;21.00;11.57;;;;;;;9.77;100.00;99307.19;4992052;28;20022;-79
2024/01/02 08:11:27;;;;;;;18.90;10.57;;;;;;;9.55;100.00;99263.56;4991959;28;20030;-78
2024/01/02 08:13:53;;;;;;;20.58;10.20;;;;;;;9.77;100.00;99300.28;4991980;28;20030;-77
2024/01/02 08:16:18;;;;;;;18.45;9.98;;;;;;;9.78;100.00;99304.50;4991838;28;20556;-77
2024/01/02 08:18:43;;;;;;;19.67;9.93;;;;;;;9.80;100.00;99306.13;4991693;28;20071;-77
2024/01/02 08:21:09;;;;;;;21.05;10.07;;;;;;;9.80;100.00;99306.94;4991881;28;20034;-79
2024/01/02 08:23:38;;;;;;;16.65;9.15;;;;;;;9.80;100.00;99309.50;4991880;28;20042;-79
2024/01/02 08:26:06;;;;;;;17.80;9.45;;;;;;;9.68;100.00;99293.31;4991671;28;20042;-77
2024/01/02 08:28:31;;;;;;;21.35;9.63;;;;;;;9.77;100.00;99302.84;4991427;28;20034;-75
2024/01/02 08:30:56;;;;;;;20.70;10.85;;;;;;;9.79;100.00;99310.47;4975741;28;20027;-75
2024/01/02 08:33:22;;;;;;;20.63;9.20;;;;;;;9.77;100.00;99307.19;4991614;28;20083;-80
2024/01/02 08:35:47;;;;;;;19.52;8.50;;;;;;;9.75;100.00;99293.63;4991875;28;20125;-80
2024/01/02 08:38:13;;;;;;;18.60;9.10;;;;;;;9.84;100.00;99304.94;5018600;28;20095;-80
2024/01/02 08:40:38;;;;;;;19.05;9.10;;;;;;;9.85;100.00;99303.97;5053021;28;20083;-78
2024/01/02 08:43:04;;;;;;;18.00;8.73;;;;;;;9.85;100.00;99296.25;5052833;28;20109;-78
2024/01/02 08:45:29;;;;;;;17.65;8.02;;;;;;;9.78;100.00;99277.91;5052469;28;20048;-77
2024/01/02 08:47:54;;;;;;;14.95;7.13;;;;;;;9.85;100.00;99280.78;5053027;28;20037;-76
2024/01/02 08:50:20;;;;;;;15.27;6.82;;;;;;;9.72;100.00;99263.75;5052889;28;20033;-77
2024/01/02 08:52:47;;;;;;;14.32;6.78;;;;;;;9.80;100.00;99268.25;5052855;28;20062;-78
2024/01/02 08:55:13;;;;;;;16.77;6.40;;;;;;;9.87;100.00;99284.03;5052716;28;20103;-78
2024/01/02 08:57:39;;;;;;;16.60;7.13;;;;;;;9.95;100.00;99279.88;5052749;28;20056;-79
2024/01/02 09:00:07;;;;;;;19.08;7.78;;;;;;;10.04;100.00;99284.25;5058077;28;20421;-75
2024/01/02 09:02:33;;;;;;;14.55;6.57;;;;;;;10.06;100.00;99286.69;5048450;23;20042;-79
2024/01/02 09:04:58;;;;;;;14.15;6.72;;;;;;;10.12;100.00;99281.00;5052943;28;20032;-80
2024/01/02 09:07:23;;;;;;;15.07;6.68;;;;;;;10.20;100.00;99285.50;5044754;28;20426;-78
2024/01/02 09:09:49;;;;;;;13.00;6.88;;;;;;;10.08;100.00;99256.41;5052432;28;20029;-78
2024/01/02 09:12:15;;;;;;;15.55;6.32;;;;;;;10.23;100.00;99270.63;5050358;28;20025;-79
2024/01/02 09:14:40;;;;;;;12.73;5.47;;;;;;;10.28;100.00;99262.47;5052992;28;20453;-79
2024/01/02 09:17:05;;;;;;;10.20;5.40;;;;;;;10.30;100.00;99260.56;5052976;28;20068;-80
2024/01/02 09:19:31;;;;;;;11.68;5.45;;;;;;;10.30;100.00;99263.16;5052546;28;20399;-79
2024/01/02 09:21:56;;;;;;;10.60;5.60;;;;;;;10.30;100.00;99253.63;5052684;28;20057;-80
2024/01/02 09:24:21;;;;;;;9.68;5.70;;;;;;;10.32;100.00;99256.09;5052305;28;20071;-81
2024/01/02 09:26:51;;;;;;;9.38;4.65;;;;;;;10.20;100.00;99236.47;5052191;28;20080;-80
2024/01/02 09:29:17;;;;;;;9.45;4.40;;;;;;;10.09;100.00;99221.94;5052381;28;20029;-78
2024/01/02 09:31:43;;;;;;;8.90;4.60;;;;;;;10.21;100.00;99238.09;5052406;28;20029;-80
2024/01/02 09:34:09;;;;;;;9.02;4.25;;;;;;;10.38;100.00;99247.00;5052043;28;20025;-79
2024/01/02 09:36:35;;;;;;;6.53;4.15;;;;;;;10.39;100.00;99252.03;5052388;28;20427;-80
2024/01/02 09:39:01;;;;;;;8.02;4.13;;;;;;;10.43;100.00;99250.00;5052380;28;20039;-80
2024/01/02 09:41:36;;;;;;;6.65;3.90;;;;;;;10.48;100.00;99245.25;5052416;28;20036;-79
2024/01/02 09:44:30;;;;;;;6.43;3.58;;;;;;;10.50;100.00;99243.34;5052088;28;20051;-81
2024/01/02 09:47:35;;;;;;;4.75;2.92;;;;;;;10.56;100.00;99248.78;5051128;28;20032;-77
2024/01/02 09:50:12;;;;;;;4.25;3.00;;;;;;;10.62;100.00;99257.78;5052653;28;20025;-79
2024/01/02 09:53:07;;;;;;;4.47;2.90;;;;;;;10.65;100.00;99242.00;5052031;28;20037;-76
2024/01/02 09:55:40;;;;;;;4.18;2.45;;;;;;;10.51;100.00;99224.31;5051914;28;20017;-77
2024/01/02 09:58:43;;;;;;;4.38;2.50;;;;;;;10.68;100.00;99254.63;5050698;28;20048;-78
2024/01/02 10:01:27;;;;;;;3.78;2.47;;;;;;;10.66;100.00;99258.31;5056780;28;20040;-78
2024/01/02 10:04:19;;;;;;;3.95;2.58;;;;;;;10.63;100.00;99256.81;5071820;28;20056;-78
2024/01/02 10:07:03;;;;;;;;;;;;;;;10.58;100.00;99251.22;5072287;28;20036;-77
2024/01/02 10:09:59;;;;;;;2.33;2.03;;;;;;;10.53;100.00;99256.81;5072044;28;19912;-80
2024/01/02 10:12:40;;;;;;;2.80;2.30;;;;;;;10.39;100.00;99238.31;5071981;28;20029;-77
2024/01/02 10:15:35;;;;;;;3.30;2.20;;;;;;;10.47;100.00;99257.34;5071681;28;20036;-80
2024/01/02 10:18:32;;;;;;;3.88;2.53;;;;;;;10.38;100.00;99242.66;5009784;28;20037;-77
2024/01/02 10:21:03;;;;;;;2.80;2.20;;;;;;;10.44;100.00;99251.66;5010219;28;20033;-77
2024/01/02 10:23:59;;;;;;;3.60;2.33;;;;;;;10.44;100.00;99239.56;5009948;28;20038;-75
2024/01/02 10:26:29;;;;;;;3.55;2.15;;;;;;;10.14;100.00;99190.59;5013819;28;20109;-81
2024/01/02 10:29:03;;;;;;;3.45;2.25;;;;;;;10.49;100.00;99241.72;5013517;28;20500;-81
2024/01/02 10:32:09;;;;;;;2.88;2.35;;;;;;;10.55;100.00;99241.19;5013278;28;20029;-81
2024/01/02 10:34:37;;;;;;;1.92;1.70;;;;;;;10.52;100.00;99228.53;4974325;28;20113;-80
2024/01/02 10:39:43;;;;;;;1.85;1.60;;;;;;;10.67;100.00;99231.53;5579882;22;20068;-79
2024/01/02 10:42:21;;;;;;;1.95;1.65;;;;;;;10.69;100.00;99229.63;5035231;28;20022;-80
2024/01/02 10:45:01;;;;;;;2.20;1.70;;;;;;;10.69;100.00;99214.97;5035103;28;20025;-81
2024/01/02 10:48:05;;;;;;;1.88;1.70;;;;;;;10.74;100.00;99224.88;5035290;28;20029;-79
2024/01/02 10:51:04;;;;;;;2.17;1.90;;;;;;;10.73;100.00;99225.84;4954688;29;20062;-79
2024/01/02 10:53:51;;;;;;;4.82;1.90;;;;;;;10.71;100.00;99219.97;4954865;29;20530;-80
2024/01/02 10:56:49;;;;;;;4.10;1.77;;;;;;;10.68;100.00;99205.59;4954531;29;20046;-80
2024/01/02 10:59:35;;;;;;;2.55;1.50;;;;;;;10.66;100.00;99211.84;4954827;29;20054;-80
2024/01/02 11:02:12;;;;;;;1.90;1.30;;;;;;;10.63;100.00;99203.44;4954595;29;20130;-80
2024/01/02 11:04:53;;;;;;;3.13;1.63;;;;;;;10.61;100.00;99207.88;4955124;28;20029;-77
2024/01/02 11:07:23;;;;;;;1.75;1.40;;;;;;;10.58;100.00;99203.00;4974527;28;20054;-76
2024/01/02 11:09:56;;;;;;;2.30;1.10;;;;;;;10.58;100.00;99197.03;4973921;28;20110;-78
2024/01/02 11:12:27;;;;;;;1.25;1.02;;;;;;;10.55;100.00;99190.38;4973899;28;20043;-78
2024/01/02 11:14:53;;;;;;;1.00;0.87;;;;;;;10.28;100.00;99152.34;4973756;28;20042;-78
2024/01/02 11:17:19;;;;;;;1.35;0.80;;;;;;;10.50;100.00;99181.41;4973540;28;20430;-78
2024/01/02 11:20:03;;;;;;;2.25;0.90;;;;;;;10.48;100.00;99184.13;4973519;28;20101;-79
2024/01/02 11:22:43;;;;;;;1.67;0.90;;;;;;;10.45;100.00;99178.44;4973646;28;20034;-79
2024/01/02 11:25:10;;;;;;;0.90;0.60;;;;;;;10.38;100.00;99162.66;4973475;28;20031;-78
2024/01/02 11:27:37;;;;;;;1.60;0.60;;;;;;;10.34;100.00;99151.00;4993813;28;20045;-77
2024/01/02 11:30:05;;;;;;;0.82;0.40;;;;;;;10.28;100.00;99136.06;5014616;28;20552;-79
2024/01/02 11:33:03;;;;;;;2.92;0.30;;;;;;;10.41;100.00;99157.22;5014690;28;20030;-80
2024/01/02 11:35:36;;;;;;;0.93;0.50;;;;;;;10.31;100.00;99139.16;4993203;28;20398;-81
2024/01/02 11:38:09;;;;;;;1.25;0.52;;;;;;;10.15;100.00;99120.00;5014347;28;20025;-80
2024/01/02 11:40:47;;;;;;;0.50;0.50;;;;;;;10.37;100.00;99142.97;5032398;28;20382;-77
2024/01/02 11:43:28;;;;;;;1.00;0.60;;;;;;;10.37;100.00;99134.44;5044102;28;20111;-77
2024/01/02 11:45:57;;;;;;;1.67;0.82;;;;;;;10.36;100.00;99128.44;5054744;28;20025;-78
2024/01/02 11:48:48;;;;;;;0.70;0.60;;;;;;;10.38;100.00;99128.31;5053780;28;20025;-76
2024/01/02 11:51:28;;;;;;;0.50;0.47;;;;;;;10.29;100.00;99104.97;5053858;28;20052;-77
2024/01/02 11:54:04;;;;;;;1.58;0.65;;;;;;;10.36;100.00;99115.56;5053459;28;20021;-75
2024/01/02 11:56:33;;;;;;;0.93;0.70;;;;;;;10.06;100.00;99073.44;5053724;28;20032;-76
2024/01/02 11:59:11;;;;;;;1.08;0.75;;;;;;;10.34;100.00;99113.13;5053830;28;20221;-75
2024/01/02 12:01:36;;;;;;;1.25;0.70;;;;;;;10.31;100.00;99105.63;5053358;28;20036;-73
2024/01/02 12:04:39;;;;;;;0.70;0.60;;;;;;;10.28;100.00;99094.78;5053612;28;20033;-79
2024/01/02 12:07:12;;;;;;;0.60;0.60;;;;;;;10.22;100.00;99087.56;4972832;28;20046;-79
2024/01/02 12:09:42;;;;;;;0.95;0.70;;;;;;;10.14;100.00;99080.50;4972647;28;20034;-78
2024/01/02 12:12:22;;;;;;;1.35;0.98;;;;;;;9.92;100.00;99039.50;4972679;28;20074;-79
2024/01/02 12:15:12;;;;;;;0.93;0.40;;;;;;;10.02;100.00;99064.34;4972805;28;20030;-80
2024/01/02 12:17:41;;;;;;;0.68;0.50;;;;;;;9.95;100.00;99063.28;4972231;28;20035;-79
2024/01/02 12:20:09;;;;;;;1.25;0.50;;;;;;;9.90;100.00;99062.84;4972491;28;20030;-79
2024/01/02 12:22:36;;;;;;;0.90;0.35;;;;;;;9.82;100.00;99052.38;4972400;28;20113;-78
2024/01/02 12:25:04;;;;;;;1.83;1.02;;;;;;;9.71;100.00;99027.56;4955484;28;20041;-77